LEBL/BCN METAR and TAF weather

Enter ICAO airport designator
Station Type Date Time Source
LEBL METAR 2019/04/20 22:30 UTC NOAA

LEBL 202230Z 02011KT CAVOK 14/08 Q1017 NOSIG


Station Type Date Time Source
LEBL Decoded METAR 2019/04/20 22:30 UTC NOAA

Barcelona / Aeropuerto, Spain (LEBL) 41-17N 002-04E 6M
Apr 20, 2019 - 06:30 PM EDT / 2019.04.20 2230 UTC
Wind: from the NNE (020 degrees) at 13 MPH (11 KT):0
Visibility: greater than 7 mile(s):0
Temperature: 57 F (14 C)
Dew Point: 46 F (8 C)
Relative Humidity: 67%
Pressure (altimeter): 30.03 in. Hg (1017 hPa)
ob: LEBL 202230Z 02011KT CAVOK 14/08 Q1017 NOSIG
cycle: 22

Station Type Date Time Source
LEBL TAF 2019/04/20 18:27 UTC NOAA

TAF LEBL 201700Z 2018/2118 05012KT 9000 FEW040 TX19/2112Z TN14/2106Z
TEMPO 2018/2023 4000 RA BKN014
TEMPO 2018/2020 02015G25KT
TEMPO 2100/2106 04015G25KT
BECMG 2106/2108 05020KT
TEMPO 2107/2118 05025G40KT PROB30
TEMPO 2110/2115 4000 TSRA SCT025CB BKN040

Example: see airport list